Time;durP1;ratioP1;P1;durP2;ratioP2;P2;SDS_P1;SDS_P2;PMS_P1;PMS_P2;Temp;Humidity;BMP_temperature;BMP_pressure;BME280_temperature;BME280_humidity;BME280_pressure;Samples;Min_cycle;Max_cycle;Signal;HPM_P1;HPM_P2
2023/01/24 00:00:03;;;;;;;;;;;0.50;99.90;;;;;;5092881;28;19965;-70
2023/01/24 00:02:29;;;;;;;;;;;0.50;99.90;;;;;;5093141;28;19919;-67
2023/01/24 00:04:55;;;;;;;;;;;0.50;99.90;;;;;;5093833;28;19916;-70
2023/01/24 00:07:20;;;;;;;;;;;0.50;99.90;;;;;;5094275;28;19912;-67
2023/01/24 00:09:46;;;;;;;;;;;0.50;99.90;;;;;;5092767;28;19920;-68
2023/01/24 00:12:11;;;;;;;;;;;0.50;99.90;;;;;;5094237;28;19912;-71
2023/01/24 00:14:37;;;;;;;;;;;0.50;99.90;;;;;;5094553;28;19912;-70
2023/01/24 00:17:03;;;;;;;;;;;0.50;99.90;;;;;;5093012;28;19912;-71
2023/01/24 00:19:28;;;;;;;;;;;0.50;99.90;;;;;;5094525;28;19923;-70
2023/01/24 00:21:54;;;;;;;;;;;0.40;99.90;;;;;;5094273;28;19942;-70
2023/01/24 00:24:19;;;;;;;;;;;0.50;99.90;;;;;;5094077;28;19919;-69
2023/01/24 00:26:45;;;;;;;;;;;0.40;99.90;;;;;;5092571;28;19993;-67
2023/01/24 00:29:10;;;;;;;;;;;0.50;99.90;;;;;;5092280;28;20283;-67
2023/01/24 00:31:36;;;;;;;;;;;0.50;99.90;;;;;;5093569;28;20003;-67
2023/01/24 00:34:01;;;;;;;;;;;0.40;99.90;;;;;;5091537;28;19912;-67
2023/01/24 00:36:27;;;;;;;;;;;0.40;99.90;;;;;;5093955;28;19916;-67
2023/01/24 00:38:54;;;;;;;;;;;0.40;99.90;;;;;;5094135;28;20049;-67
2023/01/24 00:41:20;;;;;;;;;;;0.50;99.90;;;;;;5094086;28;19949;-70
2023/01/24 00:43:45;;;;;;;;;;;0.40;99.90;;;;;;5094066;28;19992;-70
2023/01/24 00:46:11;;;;;;;;;;;0.40;99.90;;;;;;5093951;28;19912;-70
2023/01/24 00:48:37;;;;;;;;;;;0.40;99.90;;;;;;5093581;28;19924;-67
2023/01/24 00:51:03;;;;;;;;;;;0.50;99.90;;;;;;5092409;28;19912;-70
2023/01/24 00:53:28;;;;;;;;;;;0.40;99.90;;;;;;5093797;28;19965;-67
2023/01/24 00:55:54;;;;;;;;;;;0.50;99.90;;;;;;5093909;28;19913;-70
2023/01/24 00:58:20;;;;;;;;;;;0.50;99.90;;;;;;5093848;28;19912;-68
2023/01/24 01:00:46;;;;;;;;;;;0.40;99.90;;;;;;5093304;28;20417;-70
2023/01/24 01:03:13;;;;;;;;;;;0.50;99.90;;;;;;5094728;28;20425;-68
2023/01/24 01:05:38;;;;;;;;;;;0.50;99.90;;;;;;5097584;28;19912;-68
2023/01/24 01:08:04;;;;;;;;;;;0.50;99.90;;;;;;5097466;28;19986;-71
2023/01/24 01:10:29;;;;;;;;;;;0.50;99.90;;;;;;5097594;28;20359;-69
2023/01/24 01:12:56;;;;;;;;;;;0.50;99.90;;;;;;5097597;28;19973;-70
2023/01/24 01:15:21;;;;;;;;;;;0.50;99.90;;;;;;5097316;28;20441;-69
2023/01/24 01:17:47;;;;;;;;;;;0.50;99.90;;;;;;5096033;28;19991;-68
2023/01/24 01:20:12;;;;;;;;;;;0.50;99.90;;;;;;5097486;28;19912;-69
2023/01/24 01:22:38;;;;;;;;;;;0.50;99.90;;;;;;5097263;28;19998;-67
2023/01/24 01:25:04;;;;;;;;;;;0.50;99.90;;;;;;5097337;28;20291;-70
2023/01/24 01:27:29;;;;;;;;;;;0.50;99.90;;;;;;5097564;28;19912;-67
2023/01/24 01:29:55;;;;;;;;;;;0.50;99.90;;;;;;5096874;28;19920;-70
2023/01/24 01:32:20;;;;;;;;;;;0.50;99.90;;;;;;5096834;28;19912;-68
2023/01/24 01:34:46;;;;;;;;;;;0.50;99.90;;;;;;5096932;28;20359;-67
2023/01/24 01:37:11;;;;;;;;;;;0.50;99.90;;;;;;5095914;28;19956;-70
2023/01/24 01:39:37;;;;;;;;;;;0.50;99.90;;;;;;5094546;28;19923;-68
2023/01/24 01:42:03;;;;;;;;;;;0.50;99.90;;;;;;5084706;28;20363;-69
2023/01/24 01:44:38;;;;;;;;;;;0.50;99.90;;;;;;5095021;28;20011;-67
2023/01/24 01:47:24;;;;;;;;;;;0.50;99.90;;;;;;5096749;28;19959;-67
2023/01/24 01:49:59;;;;;;;;;;;0.50;99.90;;;;;;5096334;28;19920;-71
2023/01/24 01:52:26;;;;;;;;;;;0.50;99.90;;;;;;5096306;28;19912;-66
2023/01/24 01:54:53;;;;;;;;;;;0.50;99.90;;;;;;5096390;28;19951;-68
2023/01/24 01:57:21;;;;;;;;;;;0.50;99.90;;;;;;5095009;28;19965;-67
2023/01/24 01:59:55;;;;;;;;;;;0.50;99.90;;;;;;5096779;28;19963;-67
2023/01/24 02:02:22;;;;;;;;;;;0.50;99.90;;;;;;5096341;28;19916;-70
2023/01/24 02:04:51;;;;;;;;;;;0.50;99.90;;;;;;5096165;28;19912;-69
2023/01/24 02:07:30;;;;;;;;;;;0.50;99.90;;;;;;5096413;28;19913;-68
2023/01/24 02:09:57;;;;;;;;;;;0.50;99.90;;;;;;5096167;28;19920;-69
2023/01/24 02:12:24;;;;;;;;;;;0.60;99.90;;;;;;5096236;28;19912;-70
2023/01/24 02:17:43;;;;;;;;;;;0.50;99.90;;;;;;5095924;28;19923;-67
2023/01/24 02:20:15;;;;;;;;;;;0.50;99.90;;;;;;5096039;28;19939;-67
2023/01/24 02:22:49;;;;;;;;;;;0.60;99.90;;;;;;5094861;28;19912;-70
2023/01/24 02:25:15;;;;;;;;;;;0.50;99.90;;;;;;5095160;28;19958;-66
2023/01/24 02:27:41;;;;;;;;;;;0.50;99.90;;;;;;5095730;28;19912;-68
2023/01/24 02:30:06;;;;;;;;;;;0.50;99.90;;;;;;5095528;28;19959;-67
2023/01/24 02:32:32;;;;;;;;;;;0.60;99.90;;;;;;5094114;28;20066;-70
2023/01/24 02:34:58;;;;;;;;;;;0.60;99.90;;;;;;5095775;28;20060;-70
2023/01/24 02:37:24;;;;;;;;;;;0.50;99.90;;;;;;5095610;28;19919;-70
2023/01/24 02:39:59;;;;;;;;;;;0.60;99.90;;;;;;5095334;28;20706;-68
2023/01/24 02:42:35;;;;;;;;;;;0.60;99.90;;;;;;5095550;28;20020;-71
2023/01/24 02:45:13;;;;;;;;;;;0.60;99.90;;;;;;5095583;28;19912;-67
2023/01/24 02:47:41;;;;;;;;;;;0.60;99.90;;;;;;5095748;28;19912;-70
2023/01/24 02:50:08;;;;;;;;;;;0.60;99.90;;;;;;5094232;28;20422;-69
2023/01/24 02:55:18;;;;;;;;;;;0.60;99.90;;;;;;5095413;28;20386;-70
2023/01/24 03:00:28;;;;;;;;;;;0.60;99.90;;;;;;5095342;28;19923;-69
2023/01/24 03:02:53;;;;;;;;;;;0.60;99.90;;;;;;5095354;28;19913;-71
2023/01/24 03:05:19;;;;;;;;;;;0.60;99.90;;;;;;5095135;28;20359;-70
2023/01/24 03:07:45;;;;;;;;;;;0.60;99.90;;;;;;5094022;28;19912;-68
2023/01/24 03:10:11;;;;;;;;;;;0.60;99.90;;;;;;5093733;28;19973;-69
2023/01/24 03:34:33;;;;;;;;;;;0.60;99.90;;;;;;5094924;28;19957;-71
2023/01/24 03:37:00;;;;;;;;;;;0.60;99.90;;;;;;5095064;28;19912;-70
2023/01/24 03:42:09;;;;;;;;;;;0.60;99.90;;;;;;5094991;28;19919;-69
2023/01/24 03:44:35;;;;;;;;;;;0.60;99.90;;;;;;5094361;28;19916;-67
2023/01/24 03:47:01;;;;;;;;;;;0.70;99.90;;;;;;5094597;28;20387;-70
2023/01/24 03:52:29;;;;;;;;;;;0.70;99.90;;;;;;5094573;28;19938;-68
2023/01/24 03:54:54;;;;;;;;;;;0.70;99.90;;;;;;5094492;28;19983;-70
2023/01/24 03:57:20;;;;;;;;;;;0.70;99.90;;;;;;5094367;28;19961;-68
2023/01/24 03:59:46;;;;;;;;;;;0.70;99.90;;;;;;5093044;28;19990;-68
2023/01/24 04:02:11;;;;;;;;;;;0.70;99.90;;;;;;5094382;28;19912;-68
2023/01/24 04:07:21;;;;;;;;;;;0.70;99.90;;;;;;5093980;28;19977;-70
2023/01/24 04:09:47;;;;;;;;;;;0.70;99.90;;;;;;5093970;28;19920;-69
2023/01/24 04:12:12;;;;;;;;;;;0.70;99.90;;;;;;5094299;28;20402;-71
2023/01/24 04:14:38;;;;;;;;;;;0.70;99.90;;;;;;5093718;28;19957;-68
2023/01/24 04:17:03;;;;;;;;;;;0.70;99.90;;;;;;5092130;28;20014;-68
2023/01/24 04:19:29;;;;;;;;;;;0.70;99.90;;;;;;5094224;28;19916;-71
2023/01/24 04:21:57;;;;;;;;;;;0.70;99.90;;;;;;5094148;28;19916;-68
2023/01/24 04:24:22;;;;;;;;;;;0.90;99.90;;;;;;5094136;28;20929;-69
2023/01/24 04:26:48;;;;;;;;;;;0.70;99.90;;;;;;5093863;28;19912;-71
2023/01/24 04:29:14;;;;;;;;;;;0.80;99.90;;;;;;5093693;28;19920;-68
2023/01/24 04:31:39;;;;;;;;;;;0.80;99.90;;;;;;5093964;28;20283;-70
2023/01/24 04:34:05;;;;;;;;;;;0.80;99.90;;;;;;5094218;28;19912;-72
2023/01/24 04:36:30;;;;;;;;;;;0.90;99.90;;;;;;5093741;28;19912;-71
2023/01/24 04:38:56;;;;;;;;;;;0.80;99.90;;;;;;5098332;28;20381;-68
2023/01/24 04:41:21;;;;;;;;;;;0.80;99.90;;;;;;5098215;28;19919;-71
2023/01/24 04:43:47;;;;;;;;;;;0.80;99.90;;;;;;5094432;28;19936;-69
2023/01/24 04:46:13;;;;;;;;;;;0.80;99.90;;;;;;5090053;28;20264;-68
2023/01/24 04:48:38;;;;;;;;;;;0.80;99.90;;;;;;5096401;28;20359;-70
2023/01/24 04:51:04;;;;;;;;;;;0.80;99.90;;;;;;5094820;28;19985;-69
2023/01/24 04:53:30;;;;;;;;;;;0.80;99.90;;;;;;5097348;28;19942;-68
2023/01/24 04:56:01;;;;;;;;;;;0.80;99.90;;;;;;5097572;28;19912;-71
2023/01/24 04:58:27;;;;;;;;;;;0.80;99.90;;;;;;5097340;28;19912;-71
2023/01/24 05:00:53;;;;;;;;;;;0.80;99.90;;;;;;5097535;28;19919;-68
2023/01/24 05:03:18;;;;;;;;;;;0.80;99.90;;;;;;5097250;28;20347;-69
2023/01/24 05:05:48;;;;;;;;;;;0.80;99.90;;;;;;5096392;28;20287;-67
2023/01/24 05:08:13;;;;;;;;;;;0.80;99.90;;;;;;5097974;28;19923;-69
2023/01/24 05:10:39;;;;;;;;;;;1.10;99.90;;;;;;5097194;28;20018;-68
2023/01/24 05:13:04;;;;;;;;;;;0.90;99.90;;;;;;5096133;28;19965;-68
2023/01/24 05:15:30;;;;;;;;;;;0.90;99.90;;;;;;5096502;28;19918;-68
2023/01/24 05:17:56;;;;;;;;;;;0.90;99.90;;;;;;5096918;28;19916;-68
2023/01/24 05:20:21;;;;;;;;;;;1.00;99.90;;;;;;5096105;28;20011;-71
2023/01/24 05:22:48;;;;;;;;;;;1.10;99.90;;;;;;5097677;28;19913;-69
2023/01/24 05:25:17;;;;;;;;;;;1.00;99.90;;;;;;5096038;28;19913;-68
2023/01/24 05:27:43;;;;;;;;;;;0.90;99.90;;;;;;5097016;28;19923;-69
2023/01/24 05:30:09;;;;;;;;;;;1.00;99.90;;;;;;5095325;28;19923;-68
2023/01/24 05:32:35;;;;;;;;;;;1.00;99.90;;;;;;5096856;28;19970;-69
2023/01/24 05:35:01;;;;;;;;;;;0.90;99.90;;;;;;5094795;28;20467;-70
2023/01/24 05:37:26;;;;;;;;;;;0.90;99.90;;;;;;5096625;28;20387;-68
2023/01/24 05:39:52;;;;;;;;;;;0.90;99.90;;;;;;5096757;28;19923;-69
2023/01/24 05:42:17;;;;;;;;;;;1.00;99.90;;;;;;5095569;28;19965;-68
2023/01/24 05:44:43;;;;;;;;;;;1.00;99.90;;;;;;5093852;28;19912;-68
2023/01/24 05:47:08;;;;;;;;;;;1.00;99.90;;;;;;5075063;28;19919;-71
2023/01/24 05:49:34;;;;;;;;;;;1.30;99.90;;;;;;5094456;28;20360;-71
2023/01/24 05:52:00;;;;;;;;;;;1.00;99.90;;;;;;5097072;28;19912;-68
2023/01/24 05:54:25;;;;;;;;;;;1.00;99.90;;;;;;5095711;28;19920;-68
2023/01/24 05:56:51;;;;;;;;;;;1.00;99.90;;;;;;5097070;28;19912;-68
2023/01/24 05:59:16;;;;;;;;;;;1.00;99.90;;;;;;5096973;28;19958;-70
2023/01/24 06:01:42;;;;;;;;;;;1.00;99.90;;;;;;5096875;28;20370;-68
2023/01/24 06:04:07;;;;;;;;;;;0.90;99.90;;;;;;5095277;28;19968;-68
2023/01/24 06:06:33;;;;;;;;;;;1.00;99.90;;;;;;5094970;28;19919;-68
2023/01/24 06:08:58;;;;;;;;;;;1.00;99.90;;;;;;5096271;28;20382;-70
2023/01/24 06:11:25;;;;;;;;;;;1.00;99.90;;;;;;5096010;28;19912;-68
2023/01/24 06:13:52;;;;;;;;;;;1.00;99.90;;;;;;5095660;28;19912;-68
2023/01/24 06:16:19;;;;;;;;;;;1.00;99.90;;;;;;5094768;28;20438;-67
2023/01/24 06:18:46;;;;;;;;;;;1.00;99.90;;;;;;5094406;28;19928;-70
2023/01/24 06:21:29;;;;;;;;;;;1.00;99.90;;;;;;5095883;28;19993;-69
2023/01/24 06:23:55;;;;;;;;;;;1.00;99.90;;;;;;5095466;28;19999;-71
2023/01/24 06:26:20;;;;;;;;;;;1.00;99.90;;;;;;5096369;28;19959;-69
2023/01/24 06:28:46;;;;;;;;;;;1.00;99.90;;;;;;5093473;28;19916;-70
2023/01/24 06:31:15;;;;;;;;;;;1.00;99.90;;;;;;5095937;28;19912;-68
2023/01/24 06:33:51;;;;;;;;;;;1.00;99.90;;;;;;5094572;28;20373;-68
2023/01/24 06:36:32;;;;;;;;;;;1.00;99.90;;;;;;5095114;28;19918;-67
2023/01/24 06:38:58;;;;;;;;;;;1.00;99.90;;;;;;5095171;28;19961;-70
2023/01/24 06:41:24;;;;;;;;;;;1.00;99.90;;;;;;5096108;28;19916;-68
2023/01/24 06:43:49;;;;;;;;;;;1.00;99.90;;;;;;5094676;28;19947;-70
2023/01/24 06:46:15;;;;;;;;;;;1.00;99.90;;;;;;5094033;28;19919;-68
2023/01/24 06:48:44;;;;;;;;;;;1.00;99.90;;;;;;5095779;28;19923;-67
2023/01/24 06:51:10;;;;;;;;;;;;;;;;;;5094578;28;19912;-70
2023/01/24 06:53:36;;;;;;;;;;;;;;;;;;5094472;28;19995;-74
2023/01/24 06:56:02;;;;;;;;;;;;;;;;;;5095687;28;19954;-69
2023/01/24 06:58:27;;;;;;;;;;;1.30;99.90;;;;;;5095705;28;19915;-70
2023/01/24 07:00:53;;;;;;;;;;;1.20;99.90;;;;;;5094690;28;19912;-68
2023/01/24 07:03:19;;;;;;;;;;;1.20;99.90;;;;;;5095541;28;20057;-68
2023/01/24 07:05:44;;;;;;;;;;;1.20;99.90;;;;;;5089039;28;19920;-68
2023/01/24 07:08:11;;;;;;;;;;;1.40;99.90;;;;;;5094246;28;19919;-68
2023/01/24 07:10:38;;;;;;;;;;;1.20;99.90;;;;;;5094210;28;19916;-70
2023/01/24 07:13:04;;;;;;;;;;;1.20;99.90;;;;;;5095647;28;19919;-68
2023/01/24 07:15:30;;;;;;;;;;;1.30;99.90;;;;;;5095477;28;19912;-68
2023/01/24 07:17:55;;;;;;;;;;;1.20;99.90;;;;;;5094837;28;19915;-68
2023/01/24 07:20:21;;;;;;;;;;;1.30;99.90;;;;;;5094431;28;20367;-70
2023/01/24 07:22:47;;;;;;;;;;;1.40;99.90;;;;;;5094763;28;19958;-70
2023/01/24 07:25:14;;;;;;;;;;;1.30;99.90;;;;;;5094949;28;19938;-70
2023/01/24 07:27:41;;;;;;;;;;;1.30;99.90;;;;;;5094041;28;19912;-70
2023/01/24 07:30:07;;;;;;;;;;;1.20;99.90;;;;;;5095448;28;19924;-71
2023/01/24 07:32:32;;;;;;;;;;;1.40;99.90;;;;;;5094343;28;19912;-71
2023/01/24 07:34:58;;;;;;;;;;;1.40;99.90;;;;;;5091869;28;19966;-70
2023/01/24 07:37:24;;;;;;;;;;;1.20;99.90;;;;;;5076401;28;19920;-71
2023/01/24 07:39:52;;;;;;;;;;;1.30;99.90;;;;;;5085595;28;19912;-71
2023/01/24 07:42:18;;;;;;;;;;;1.30;99.90;;;;;;5093147;28;19919;-69
2023/01/24 07:44:43;;;;;;;;;;;1.20;99.90;;;;;;5094508;28;19912;-68
2023/01/24 07:47:09;;;;;;;;;;;1.30;99.90;;;;;;5094765;28;19922;-71
2023/01/24 07:49:35;;;;;;;;;;;;;;;;;;5095331;28;19927;-70
2023/01/24 07:52:00;;;;;;;;;;;1.30;99.90;;;;;;5094992;28;19958;-70
2023/01/24 07:54:26;;;;;;;;;;;1.20;99.90;;;;;;5095001;28;19920;-71
2023/01/24 07:56:52;;;;;;;;;;;;;;;;;;5094863;28;19923;-68
2023/01/24 07:59:19;;;;;;;;;;;1.30;99.90;;;;;;5094748;28;19916;-68
2023/01/24 08:01:44;;;;;;;;;;;1.50;99.90;;;;;;5093363;28;19947;-69
2023/01/24 08:04:10;;;;;;;;;;;1.40;99.90;;;;;;5094743;28;19978;-70
2023/01/24 08:06:35;;;;;;;;;;;1.50;99.90;;;;;;5094693;28;19916;-70
2023/01/24 08:09:01;;;;;;;;;;;1.60;99.90;;;;;;5094303;28;19920;-68
2023/01/24 08:11:27;;;;;;;;;;;1.50;99.90;;;;;;5093039;28;19913;-67
2023/01/24 08:13:54;;;;;;;;;;;1.60;99.90;;;;;;5094419;28;19923;-68
2023/01/24 08:16:23;;;;;;;;;;;1.50;99.90;;;;;;5092901;28;20283;-68
2023/01/24 08:18:49;;;;;;;;;;;1.50;99.90;;;;;;5094337;28;19923;-68
2023/01/24 08:21:14;;;;;;;;;;;1.60;99.90;;;;;;5094653;28;19912;-67
2023/01/24 08:23:40;;;;;;;;;;;1.40;99.90;;;;;;5076562;28;19919;-68
2023/01/24 08:26:06;;;;;;;;;;;1.70;99.90;;;;;;5064229;28;19919;-70
2023/01/24 08:28:32;;;;;;;;;;;1.60;99.90;;;;;;5074007;28;19917;-71
2023/01/24 08:30:58;;;;;;;;;;;1.60;99.90;;;;;;5073995;28;19916;-69
2023/01/24 08:33:24;;;;;;;;;;;1.50;99.90;;;;;;5056064;28;19916;-69
2023/01/24 08:35:49;;;;;;;;;;;1.70;99.90;;;;;;5083971;28;19999;-71
2023/01/24 08:38:15;;;;;;;;;;;1.60;99.90;;;;;;5076321;28;19920;-71
2023/01/24 08:40:41;;;;;;;;;;;1.60;99.90;;;;;;5094408;28;19912;-71
2023/01/24 08:43:07;;;;;;;;;;;1.60;99.90;;;;;;5076199;28;20348;-70
2023/01/24 08:45:32;;;;;;;;;;;1.70;99.90;;;;;;5087172;28;19913;-71
2023/01/24 08:47:58;;;;;;;;;;;1.70;99.90;;;;;;5056404;28;19947;-69
2023/01/24 08:50:24;;;;;;;;;;;1.70;99.90;;;;;;5073470;28;20007;-69
2023/01/24 08:52:53;;;;;;;;;;;1.70;99.90;;;;;;5056057;28;20322;-70
2023/01/24 08:55:18;;;;;;;;;;;1.80;99.90;;;;;;5060781;28;20001;-69
2023/01/24 08:57:44;;;;;;;;;;;1.70;99.90;;;;;;5094032;28;20390;-69
2023/01/24 09:00:10;;;;;;;;;;;1.70;99.90;;;;;;5094140;28;19912;-70
2023/01/24 09:02:37;;;;;;;;;;;1.70;99.90;;;;;;5094192;28;19919;-70
2023/01/24 09:05:04;;;;;;;;;;;1.70;99.90;;;;;;5073449;28;20426;-70
2023/01/24 09:07:30;;;;;;;;;;;1.80;99.90;;;;;;5073978;28;20275;-70
2023/01/24 09:09:56;;;;;;;;;;;1.80;99.90;;;;;;5073728;28;19920;-70
2023/01/24 09:12:21;;;;;;;;;;;1.80;99.90;;;;;;5073892;28;19912;-70
2023/01/24 09:14:47;;;;;;;;;;;1.80;99.90;;;;;;5073939;28;19960;-70
2023/01/24 09:17:12;;;;;;;;;;;1.80;99.90;;;;;;5093962;28;19919;-71
2023/01/24 09:19:38;;;;;;;;;;;;;;;;;;5093825;28;19918;-71
2023/01/24 09:22:04;;;;;;;;;;;2.10;99.90;;;;;;5093741;28;19957;-71
2023/01/24 09:24:30;;;;;;;;;;;;;;;;;;5095441;28;20400;-70
2023/01/24 09:26:55;;;;;;;;;;;2.10;99.90;;;;;;5061463;28;19913;-70
2023/01/24 09:29:21;;;;;;;;;;;2.20;99.90;;;;;;5059111;28;19929;-69
2023/01/24 09:31:47;;;;;;;;;;;2.20;99.90;;;;;;5076973;28;19912;-69
2023/01/24 09:34:13;;;;;;;;;;;2.20;99.90;;;;;;5077038;28;19995;-69
2023/01/24 09:36:39;;;;;;;;;;;2.10;99.90;;;;;;5092590;28;19997;-69
2023/01/24 09:39:04;;;;;;;;;;;2.40;99.90;;;;;;5097478;28;19919;-70
2023/01/24 09:41:36;;;;;;;;;;;3.00;99.90;;;;;;5097302;28;20263;-68
2023/01/24 09:44:03;;;;;;;;;;;3.10;99.90;;;;;;5097229;28;20351;-69
2023/01/24 09:46:48;;;;;;;;;;;3.00;99.90;;;;;;5065059;28;19913;-70
2023/01/24 09:49:17;;;;;;;;;;;3.00;99.90;;;;;;5052343;28;19924;-69
2023/01/24 09:51:51;;;;;;;;;;;2.60;99.90;;;;;;5054838;28;19913;-69
2023/01/24 09:54:37;;;;;;;;;;;2.50;99.90;;;;;;5038643;28;19916;-69
2023/01/24 09:57:10;;;;;;;;;;;2.50;99.90;;;;;;5093544;28;20271;-69
2023/01/24 09:59:39;;;;;;;;;;;2.40;99.90;;;;;;5078442;28;20041;-69
2023/01/24 10:02:32;;;;;;;;;;;2.40;99.90;;;;;;5078576;28;19935;-69
2023/01/24 10:04:59;;;;;;;;;;;2.50;99.90;;;;;;5092778;28;19923;-69
2023/01/24 10:07:33;;;;;;;;;;;2.40;99.90;;;;;;5076320;28;19918;-69
2023/01/24 10:10:13;;;;;;;;;;;2.40;99.90;;;;;;5058558;28;20256;-70
2023/01/24 10:12:42;;;;;;;;;;;2.50;99.90;;;;;;5076987;28;19920;-69
2023/01/24 10:15:31;;;;;;;;;;;2.50;99.90;;;;;;5077963;28;19923;-69
2023/01/24 10:18:08;;;;;;;;;;;2.50;99.90;;;;;;5043779;28;19923;-69
2023/01/24 10:20:34;;;;;;;;;;;2.50;99.90;;;;;;5058398;28;20260;-69
2023/01/24 10:23:02;;;;;;;;;;;2.40;99.90;;;;;;5076577;28;19912;-70
2023/01/24 10:25:34;;;;;;;;;;;2.40;99.90;;;;;;5076018;28;19912;-68
2023/01/24 10:28:01;;;;;;;;;;;2.50;99.90;;;;;;5096279;28;19916;-68
2023/01/24 10:30:48;;;;;;;;;;;2.50;99.90;;;;;;5096303;28;19927;-68
2023/01/24 10:33:15;;;;;;;;;;;2.50;99.90;;;;;;5096420;28;20355;-70
2023/01/24 10:35:53;;;;;;;;;;;2.70;99.90;;;;;;5080601;28;19920;-70
2023/01/24 10:38:19;;;;;;;;;;;2.60;99.90;;;;;;5078398;28;19919;-70
2023/01/24 10:40:48;;;;;;;;;;;2.50;99.90;;;;;;5095923;28;19912;-69
2023/01/24 10:43:14;;;;;;;;;;;2.50;99.90;;;;;;5095986;28;19912;-69
2023/01/24 10:45:45;;;;;;;;;;;2.60;99.90;;;;;;5089854;28;19948;-70
2023/01/24 10:48:17;;;;;;;;;;;2.60;99.90;;;;;;5075122;28;19918;-70
2023/01/24 10:50:44;;;;;;;;;;;2.60;99.90;;;;;;5091257;28;19923;-69
2023/01/24 10:53:24;;;;;;;;;;;2.50;99.90;;;;;;5075561;28;19957;-70
2023/01/24 10:55:56;;;;;;;;;;;2.60;99.90;;;;;;5082255;28;19916;-71
2023/01/24 10:58:26;;;;;;;;;;;2.70;99.90;;;;;;5077078;28;19912;-71
2023/01/24 11:00:55;;;;;;;;;;;2.80;99.90;;;;;;5076730;28;19912;-71
2023/01/24 11:03:34;;;;;;;;;;;2.60;99.90;;;;;;5075533;28;19912;-71
2023/01/24 11:06:00;;;;;;;;;;;2.70;99.90;;;;;;5083245;28;19912;-71
2023/01/24 11:08:31;;;;;;;;;;;2.70;99.90;;;;;;5065605;28;19921;-71
2023/01/24 11:11:00;;;;;;;;;;;2.70;99.90;;;;;;5036376;28;20264;-71
2023/01/24 11:13:32;;;;;;;;;;;2.80;99.90;;;;;;5061047;28;19919;-71
2023/01/24 11:16:21;;;;;;;;;;;2.70;99.90;;;;;;5081486;28;19916;-71
2023/01/24 11:18:47;;;;;;;;;;;2.70;99.90;;;;;;5085373;28;19920;-71
2023/01/24 11:21:15;;;;;;;;;;;2.80;99.90;;;;;;5089120;28;19912;-70
2023/01/24 11:23:41;;;;;;;;;;;2.80;99.90;;;;;;5075440;28;19913;-70
2023/01/24 11:26:19;;;;;;;;;;;2.70;99.90;;;;;;5070259;28;20006;-69
2023/01/24 11:28:54;;;;;;;;;;;2.70;99.90;;;;;;5072775;28;19923;-69
2023/01/24 11:31:27;;;;;;;;;;;2.80;99.90;;;;;;5069140;28;19920;-70
2023/01/24 11:34:03;;;;;;;;;;;2.90;99.90;;;;;;5072289;28;19917;-70
2023/01/24 11:36:29;;;;;;;;;;;2.80;99.90;;;;;;5084842;28;19999;-69
2023/01/24 11:38:56;;;;;;;;;;;2.80;99.90;;;;;;5092234;28;19943;-70
2023/01/24 11:41:32;;;;;;;;;;;2.70;99.90;;;;;;5092604;28;19923;-69
2023/01/24 11:44:01;;;;;;;;;;;2.80;99.90;;;;;;5092542;28;19916;-69
2023/01/24 11:46:32;;;;;;;;;;;2.70;99.90;;;;;;5069967;28;19962;-69
2023/01/24 11:49:24;;;;;;;;;;;2.70;99.90;;;;;;5092408;28;19916;-69
2023/01/24 11:51:50;;;;;;;;;;;2.80;99.90;;;;;;5073075;28;19923;-68
2023/01/24 11:54:16;;;;;;;;;;;2.80;99.90;;;;;;5063646;28;19913;-68
2023/01/24 11:57:01;;;;;;;;;;;2.80;99.90;;;;;;5085906;28;20279;-68
2023/01/24 11:59:33;;;;;;;;;;;2.80;99.90;;;;;;5073491;28;19913;-68
2023/01/24 12:02:17;;;;;;;;;;;2.70;99.90;;;;;;5074343;28;20003;-68
2023/01/24 12:04:51;;;;;;;;;;;2.70;99.90;;;;;;5074586;28;19916;-68
2023/01/24 12:07:17;;;;;;;;;;;2.70;99.90;;;;;;5073258;28;19958;-68
2023/01/24 12:09:45;;;;;;;;;;;2.70;99.90;;;;;;5074708;28;19968;-68
2023/01/24 12:12:18;;;;;;;;;;;2.70;99.90;;;;;;5074252;28;20412;-68
2023/01/24 12:14:44;;;;;;;;;;;2.60;99.90;;;;;;5072863;28;19962;-68
2023/01/24 12:17:28;;;;;;;;;;;2.60;99.90;;;;;;5089840;28;19916;-69
2023/01/24 12:19:57;;;;;;;;;;;2.60;99.90;;;;;;5075217;28;20313;-69
2023/01/24 12:22:24;;;;;;;;;;;2.70;99.90;;;;;;5076134;28;20311;-69
2023/01/24 12:24:55;;;;;;;;;;;2.80;99.90;;;;;;5075967;28;20327;-69
2023/01/24 12:27:23;;;;;;;;;;;2.80;99.90;;;;;;5074182;28;20471;-69
2023/01/24 12:29:49;;;;;;;;;;;2.70;99.90;;;;;;5071681;28;20305;-69
2023/01/24 12:32:31;;;;;;;;;;;2.60;99.90;;;;;;5071825;28;19913;-69
2023/01/24 12:34:59;;;;;;;;;;;2.70;99.90;;;;;;5071814;28;19913;-70
2023/01/24 12:37:36;;;;;;;;;;;2.70;99.90;;;;;;5072721;28;20272;-70
2023/01/24 12:40:13;;;;;;;;;;;2.80;99.90;;;;;;5075204;28;19958;-68
2023/01/24 12:42:42;;;;;;;;;;;2.70;99.90;;;;;;5074194;28;19912;-68
2023/01/24 12:45:14;;;;;;;;;;;2.80;99.90;;;;;;5092440;28;20340;-69
2023/01/24 12:47:48;;;;;;;;;;;2.70;99.90;;;;;;5052101;28;19913;-68
2023/01/24 12:50:14;;;;;;;;;;;2.50;99.90;;;;;;5033793;28;19927;-69
2023/01/24 12:52:58;;;;;;;;;;;2.50;99.90;;;;;;5052625;28;19913;-70
2023/01/24 12:55:42;;;;;;;;;;;2.60;99.90;;;;;;5075510;28;19912;-69
2023/01/24 12:58:10;;;;;;;;;;;2.60;99.90;;;;;;5095240;28;19912;-70
2023/01/24 13:00:48;;;;;;;;;;;2.60;99.90;;;;;;5098216;28;19920;-71
2023/01/24 13:03:23;;;;;;;;;;;2.70;99.90;;;;;;5098351;28;20355;-70
2023/01/24 13:06:03;;;;;;;;;;;2.70;99.90;;;;;;5091500;28;19919;-69
2023/01/24 13:08:48;;;;;;;;;;;2.70;99.90;;;;;;5077738;28;19989;-69
2023/01/24 13:11:18;;;;;;;;;;;2.80;99.90;;;;;;5077846;28;20405;-70
2023/01/24 13:13:48;;;;;;;;;;;2.80;99.90;;;;;;5077710;28;19920;-69
2023/01/24 13:16:29;;;;;;;;;;;2.80;99.90;;;;;;5086072;28;19958;-70
2023/01/24 13:18:59;;;;;;;;;;;2.80;99.90;;;;;;5097931;28;19916;-71
2023/01/24 13:21:42;;;;;;;;;;;2.90;99.90;;;;;;5097835;28;19912;-70
2023/01/24 13:24:18;;;;;;;;;;;3.00;99.90;;;;;;5059964;28;19920;-70
2023/01/24 13:26:49;;;;;;;;;;;3.00;99.90;;;;;;5090037;28;20412;-70
2023/01/24 13:29:21;;;;;;;;;;;3.00;99.90;;;;;;5079468;28;19947;-70
2023/01/24 13:31:53;;;;;;;;;;;2.80;99.90;;;;;;5097806;28;19912;-69
2023/01/24 13:34:20;;;;;;;;;;;2.90;99.90;;;;;;5097621;28;19919;-69
2023/01/24 13:36:50;;;;;;;;;;;3.00;99.90;;;;;;5066827;28;19912;-69
2023/01/24 13:39:32;;;;;;;;;;;2.90;99.90;;;;;;5059088;28;19917;-69
2023/01/24 13:42:03;;;;;;;;;;;2.80;99.90;;;;;;5076850;28;19940;-68
2023/01/24 13:44:33;;;;;;;;;;;2.80;99.90;;;;;;5076970;28;19912;-69
2023/01/24 13:47:16;;;;;;;;;;;2.70;99.90;;;;;;5073085;28;19916;-68
2023/01/24 13:50:03;;;;;;;;;;;2.60;99.90;;;;;;5078870;28;20015;-69
2023/01/24 13:52:29;;;;;;;;;;;2.60;99.90;;;;;;5082329;28;19966;-69
2023/01/24 13:54:54;;;;;;;;;;;2.70;99.90;;;;;;5041300;28;19913;-68
2023/01/24 13:57:21;;;;;;;;;;;2.60;99.90;;;;;;5088425;28;20004;-70
2023/01/24 14:00:08;;;;;;;;;;;2.70;99.90;;;;;;5095540;28;20497;-68
2023/01/24 14:02:37;;;;;;;;;;;2.70;99.90;;;;;;5097137;28;19923;-68
2023/01/24 14:05:03;;;;;;;;;;;2.60;99.90;;;;;;5096970;28;19919;-68
2023/01/24 14:07:38;;;;;;;;;;;2.70;99.90;;;;;;5078377;28;19916;-68
2023/01/24 14:10:06;;;;;;;;;;;2.60;99.90;;;;;;5075381;28;20345;-69
2023/01/24 14:12:33;;;;;;;;;;;2.50;99.90;;;;;;5070547;28;19913;-69
2023/01/24 14:15:04;;;;;;;;;;;2.70;99.90;;;;;;5063732;28;19912;-67
2023/01/24 14:17:36;;;;;;;;;;;3.50;99.90;;;;;;5091060;28;20364;-69
2023/01/24 14:20:03;;;;;;;;;;;3.10;99.90;;;;;;5096644;28;20422;-67
2023/01/24 14:22:39;;;;;;;;;;;2.70;99.90;;;;;;5096528;28;20283;-67
2023/01/24 14:25:20;;;;;;;;;;;2.70;99.90;;;;;;5096675;28;20276;-69
2023/01/24 14:27:50;;;;;;;;;;;2.50;99.90;;;;;;5076300;28;19919;-68
2023/01/24 14:30:34;;;;;;;;;;;2.40;99.90;;;;;;5076236;28;19928;-67
2023/01/24 14:33:04;;;;;;;;;;;2.40;99.90;;;;;;5076312;28;19965;-69
2023/01/24 14:35:33;;;;;;;;;;;2.40;99.90;;;;;;5077462;28;20001;-68
2023/01/24 14:38:17;;;;;;;;;;;2.30;99.90;;;;;;5096428;28;20257;-68
2023/01/24 14:40:53;;;;;;;;;;;2.30;99.90;;;;;;5096065;28;19913;-68
2023/01/24 14:43:19;;;;;;;;;;;2.30;99.90;;;;;;5094727;28;19912;-69
2023/01/24 14:45:46;;;;;;;;;;;2.30;99.90;;;;;;5096054;28;19912;-68
2023/01/24 14:48:14;;;;;;;;;;;2.30;99.90;;;;;;5095499;28;19919;-68
2023/01/24 14:50:39;;;;;;;;;;;2.20;99.90;;;;;;5094858;28;19920;-69
2023/01/24 14:53:22;;;;;;;;;;;2.40;99.90;;;;;;5096106;28;19912;-69
2023/01/24 14:55:47;;;;;;;;;;;2.30;99.90;;;;;;5095837;28;20419;-69
2023/01/24 14:58:14;;;;;;;;;;;2.20;99.90;;;;;;5094563;28;19919;-67
2023/01/24 15:00:40;;;;;;;;;;;2.20;99.90;;;;;;5096051;28;20003;-69
2023/01/24 15:03:05;;;;;;;;;;;2.20;99.90;;;;;;5094558;28;19951;-69
2023/01/24 15:05:32;;;;;;;;;;;2.20;99.90;;;;;;5095512;28;20271;-67
2023/01/24 15:07:59;;;;;;;;;;;2.20;99.90;;;;;;5095431;28;19912;-67
2023/01/24 15:10:25;;;;;;;;;;;2.20;99.90;;;;;;5095710;28;19920;-68
2023/01/24 15:12:52;;;;;;;;;;;2.20;99.90;;;;;;5094269;28;20309;-68
2023/01/24 15:15:18;;;;;;;;;;;2.20;99.90;;;;;;5095716;28;19915;-68
2023/01/24 15:17:48;;;;;;;;;;;2.10;99.90;;;;;;5095574;28;19916;-68
2023/01/24 15:20:16;;;;;;;;;;;2.10;99.90;;;;;;5095619;28;19912;-69